createdAt,value
2022-08-23T00:01:22.339Z,101964.03
2022-08-23T00:03:53.411Z,101960.59
2022-08-23T00:06:22.850Z,101966.00
2022-08-23T00:08:52.166Z,101962.44
2022-08-23T00:11:32.216Z,101959.75
2022-08-23T00:14:02.506Z,101971.22
2022-08-23T00:16:32.076Z,101957.13
2022-08-23T00:19:00.390Z,101963.28
2022-08-23T00:21:29.459Z,101964.22
2022-08-23T00:23:57.662Z,101962.53
2022-08-23T00:26:26.121Z,101962.44
2022-08-23T00:28:54.348Z,101962.44
2022-08-23T00:31:22.502Z,101962.44
2022-08-23T00:33:51.962Z,101957.13
2022-08-23T00:36:20.042Z,101958.03
2022-08-23T00:38:48.130Z,101962.47
2022-08-23T00:41:16.152Z,101961.69
2022-08-23T00:44:01.773Z,101964.38
2022-08-23T00:46:59.388Z,101961.84
2022-08-23T00:49:31.345Z,101960.84
2022-08-23T00:52:07.730Z,101960.81
2022-08-23T00:54:38.028Z,101959.03
2022-08-23T00:57:10.651Z,101966.13
2022-08-23T00:59:38.865Z,101959.03
2022-08-23T01:02:07.979Z,101969.72
2022-08-23T01:04:40.858Z,101960.00
2022-08-23T01:07:13.868Z,101951.25
2022-08-23T01:09:46.161Z,101960.97
2022-08-23T01:12:24.037Z,101959.25
2022-08-23T01:15:03.083Z,101965.38
2022-08-23T01:17:36.621Z,101965.41
2022-08-23T01:20:10.228Z,101961.94
2022-08-23T01:22:43.980Z,101966.38
2022-08-23T01:25:17.144Z,101968.16
2022-08-23T01:27:47.333Z,101961.97
2022-08-23T01:30:20.672Z,101966.41
2022-08-23T01:32:52.865Z,101963.75
2022-08-23T01:37:54.353Z,101968.19
2022-08-23T01:40:24.075Z,101961.97
2022-08-23T01:42:52.282Z,101975.25
2022-08-23T01:45:20.585Z,101977.00
2022-08-23T01:47:48.553Z,101970.81
2022-08-23T01:50:16.700Z,101969.94
2022-08-23T01:52:57.310Z,101970.88
2022-08-23T01:55:27.432Z,101977.97
2022-08-23T01:57:58.079Z,101973.56
2022-08-23T02:00:30.067Z,101977.06
2022-08-23T02:02:59.402Z,101974.41
2022-08-23T02:05:28.254Z,101968.25
2022-08-23T02:07:57.058Z,101977.06
2022-08-23T02:10:26.625Z,101975.34
2022-08-23T02:12:54.619Z,101970.03
2022-08-23T02:15:22.746Z,101969.19
2022-08-23T02:17:50.897Z,101964.78
2022-08-23T02:20:19.456Z,101973.59
2022-08-23T02:22:47.548Z,101964.78
2022-08-23T02:25:15.643Z,101980.72
2022-08-23T02:27:44.984Z,101986.00
2022-08-23T02:30:14.088Z,101980.69
2022-08-23T02:32:42.342Z,101991.31
2022-08-23T02:35:10.764Z,101986.91
2022-08-23T02:37:39.137Z,101986.91
2022-08-23T02:40:08.381Z,101985.16
2022-08-23T02:42:36.474Z,101986.91
2022-08-23T02:45:08.657Z,101981.59
2022-08-23T02:47:37.411Z,101986.91
2022-08-23T02:50:06.199Z,101984.25
2022-08-23T02:52:34.577Z,101986.03
2022-08-23T02:55:02.912Z,101991.34
2022-08-23T02:57:31.588Z,101989.56
2022-08-23T02:59:59.907Z,101982.50
2022-08-23T03:02:29.793Z,101980.75
2022-08-23T03:04:58.077Z,101938.41
2022-08-23T03:07:26.310Z,101982.53
2022-08-23T03:09:54.252Z,101992.22
2022-08-23T03:12:22.383Z,101981.63
2022-08-23T03:14:52.663Z,101959.56
2022-08-23T03:17:20.932Z,101986.06
2022-08-23T03:19:52.410Z,101985.16
2022-08-23T03:22:20.969Z,101984.31
2022-08-23T03:24:48.957Z,101985.16
2022-08-23T03:27:17.139Z,101987.84
2022-08-23T03:29:45.322Z,101986.06
2022-08-23T03:32:13.597Z,101977.19
2022-08-23T03:34:43.732Z,101982.47
2022-08-23T03:37:13.236Z,101987.78
2022-08-23T03:39:41.325Z,101989.53
2022-08-23T03:42:09.858Z,101984.22
2022-08-23T03:44:37.929Z,101987.78
2022-08-23T03:47:07.117Z,101978.97
2022-08-23T03:49:35.799Z,101985.16
2022-08-23T03:52:04.640Z,101996.63
2022-08-23T03:54:34.400Z,101993.06
2022-08-23T03:57:05.832Z,101988.69
2022-08-23T03:59:35.461Z,101975.44
2022-08-23T04:02:03.665Z,101993.13
2022-08-23T04:04:31.984Z,101988.69
2022-08-23T04:07:00.485Z,102001.94
2022-08-23T04:09:28.966Z,101999.31
2022-08-23T04:11:58.636Z,102012.50
2022-08-23T04:14:26.729Z,102014.31
2022-08-23T04:16:55.832Z,102012.53
2022-08-23T04:19:25.606Z,102005.47
2022-08-23T04:21:54.173Z,102009.88
2022-08-23T04:24:22.362Z,102012.53
2022-08-23T04:26:50.643Z,102018.72
2022-08-23T04:29:24.875Z,102021.34
2022-08-23T04:32:05.600Z,102023.09
2022-08-23T04:34:36.572Z,102028.41
2022-08-23T04:37:09.225Z,102028.38
2022-08-23T04:39:58.862Z,102022.19
2022-08-23T04:42:26.760Z,102023.06
2022-08-23T04:44:56.121Z,101999.22
2022-08-23T04:47:24.488Z,102031.91
2022-08-23T04:49:52.694Z,102042.47
2022-08-23T04:52:20.823Z,102046.06
2022-08-23T04:54:48.882Z,102029.25
2022-08-23T04:57:17.307Z,102044.28
2022-08-23T04:59:45.335Z,102029.25
2022-08-23T05:02:14.747Z,102035.44
2022-08-23T05:04:43.949Z,102041.63
2022-08-23T05:07:12.005Z,102043.38
2022-08-23T05:09:40.389Z,102046.06
2022-08-23T05:12:09.347Z,102054.00
2022-08-23T05:14:37.359Z,102051.38
2022-08-23T05:17:05.874Z,102047.81
2022-08-23T05:19:35.431Z,102051.38
2022-08-23T05:22:07.518Z,102051.34
2022-08-23T05:24:40.363Z,102049.59
2022-08-23T05:27:13.485Z,102046.09
2022-08-23T05:29:42.101Z,102040.78
2022-08-23T05:32:10.654Z,102049.59
2022-08-23T05:34:40.989Z,102049.59
2022-08-23T05:37:09.225Z,102063.75
2022-08-23T05:39:37.532Z,102062.84
2022-08-23T05:42:06.162Z,102060.19
2022-08-23T05:44:36.768Z,102061.09
2022-08-23T05:47:10.417Z,102060.19
2022-08-23T05:49:41.313Z,102061.94
2022-08-23T05:52:12.918Z,102067.25
2022-08-23T05:54:42.147Z,102067.25
2022-08-23T05:57:11.739Z,102063.66
2022-08-23T05:59:42.017Z,102063.69
2022-08-23T06:02:10.772Z,102056.59
2022-08-23T06:04:40.301Z,102061.91
2022-08-23T06:07:09.961Z,102063.66
2022-08-23T06:09:38.477Z,102061.91
2022-08-23T06:12:06.714Z,102066.31
2022-08-23T06:14:34.779Z,102066.25
2022-08-23T06:17:03.234Z,102054.72
2022-08-23T06:19:31.467Z,102067.13
2022-08-23T06:22:00.840Z,102072.41
2022-08-23T06:24:29.388Z,102068.84
2022-08-23T06:26:57.470Z,102068.78
2022-08-23T06:29:25.625Z,102068.78
2022-08-23T06:31:56.076Z,102059.88
2022-08-23T06:34:26.861Z,102061.59
2022-08-23T06:36:57.970Z,102052.69
2022-08-23T06:39:29.419Z,102061.50
2022-08-23T06:42:00.763Z,102064.03
2022-08-23T06:44:29.746Z,102072.00
2022-08-23T06:46:58.683Z,102057.75
2022-08-23T06:49:27.799Z,102064.78
2022-08-23T06:51:57.706Z,102063.91
2022-08-23T06:54:30.477Z,102056.81
2022-08-23T06:56:59.271Z,102058.50
2022-08-23T06:59:27.503Z,102061.06
2022-08-23T07:01:58.098Z,102064.63
2022-08-23T07:04:29.004Z,102062.81
2022-08-23T07:06:57.292Z,102062.72
2022-08-23T07:09:26.474Z,102067.94
2022-08-23T07:11:56.301Z,102062.59
2022-08-23T07:14:25.621Z,102068.66
2022-08-23T07:16:56.371Z,102071.28
2022-08-23T07:19:29.001Z,102061.53
2022-08-23T07:21:58.431Z,102067.56
2022-08-23T07:24:32.293Z,102071.09
2022-08-23T07:27:06.638Z,102064.00
2022-08-23T07:29:36.352Z,102068.44
2022-08-23T07:32:05.226Z,102071.00
2022-08-23T07:34:33.566Z,102070.09
2022-08-23T07:37:02.258Z,102070.03
2022-08-23T07:39:31.807Z,102077.94
2022-08-23T07:42:23.187Z,102076.97
2022-08-23T07:44:53.208Z,102074.28
2022-08-23T07:47:22.091Z,102072.44
2022-08-23T07:49:50.147Z,102060.00
2022-08-23T07:52:18.621Z,102076.59
2022-08-23T07:54:49.346Z,102070.38
2022-08-23T07:57:20.152Z,102075.59
2022-08-23T07:59:48.817Z,102078.09
2022-08-23T08:02:17.011Z,102078.03
2022-08-23T08:04:45.293Z,102076.22
2022-08-23T08:07:21.422Z,102087.66
2022-08-23T08:09:49.877Z,102083.13
2022-08-23T08:12:19.505Z,102084.84
2022-08-23T08:14:48.513Z,102080.22
2022-08-23T08:17:18.332Z,102086.16
2022-08-23T08:19:47.030Z,102082.41
2022-08-23T08:22:15.239Z,102077.78
2022-08-23T08:24:43.660Z,102077.66
2022-08-23T08:27:11.886Z,102080.09
2022-08-23T08:29:42.111Z,102077.78
2022-08-23T08:32:14.000Z,102073.13
2022-08-23T08:34:43.000Z,102070.97
2022-08-23T08:37:11.595Z,102078.19
2022-08-23T08:39:45.944Z,102084.38
2022-08-23T08:42:43.378Z,102034.28
2022-08-23T08:45:18.278Z,102077.31
2022-08-23T08:47:50.876Z,102081.75
2022-08-23T08:50:24.334Z,102078.00
2022-08-23T08:53:01.792Z,102084.97
2022-08-23T08:55:33.575Z,102085.03
2022-08-23T08:58:05.731Z,102078.50
2022-08-23T09:00:39.301Z,102078.41
2022-08-23T09:03:14.330Z,102078.25
2022-08-23T09:05:53.817Z,102079.28
2022-08-23T09:08:37.589Z,102085.28
2022-08-23T09:11:12.403Z,102082.69
2022-08-23T09:14:03.741Z,102086.25
2022-08-23T09:16:48.382Z,102093.06
2022-08-23T09:19:17.645Z,102089.34
2022-08-23T09:21:49.630Z,102085.88
2022-08-23T09:24:17.843Z,102092.91
2022-08-23T09:26:46.028Z,102088.22
2022-08-23T09:29:24.203Z,102090.66
2022-08-23T09:31:55.950Z,102089.13
2022-08-23T09:34:42.209Z,102089.88
2022-08-23T09:37:17.384Z,102089.16
2022-08-23T09:39:49.811Z,102091.78
2022-08-23T09:42:36.551Z,102084.53
2022-08-23T09:45:06.703Z,102095.69
2022-08-23T09:47:44.606Z,102086.47
2022-08-23T09:50:25.786Z,102092.53
2022-08-23T09:52:59.526Z,102095.84
2022-08-23T09:55:33.034Z,102101.06
2022-08-23T09:58:02.900Z,102096.59
2022-08-23T10:00:34.877Z,102104.72
2022-08-23T10:03:25.601Z,102097.00
2022-08-23T10:05:56.157Z,102091.50
2022-08-23T10:08:27.396Z,102094.19
2022-08-23T10:10:59.976Z,102073.19
2022-08-23T10:13:28.861Z,102076.69
2022-08-23T10:16:07.326Z,102080.31
2022-08-23T10:18:52.126Z,102085.53
2022-08-23T10:21:26.746Z,102083.13
2022-08-23T10:24:06.659Z,102082.81
2022-08-23T10:26:36.895Z,102072.56
2022-08-23T10:29:31.449Z,102070.97
2022-08-23T10:32:06.923Z,102064.38
2022-08-23T10:34:47.193Z,102067.91
2022-08-23T10:37:36.113Z,102066.53
2022-08-23T10:40:12.451Z,102064.69
2022-08-23T10:42:49.154Z,102057.28
2022-08-23T10:45:26.106Z,102057.84
2022-08-23T10:48:11.805Z,102052.94
2022-08-23T10:50:55.853Z,102068.34
2022-08-23T10:53:28.218Z,102059.88
2022-08-23T10:56:04.515Z,102060.44
2022-08-23T10:58:38.972Z,102067.44
2022-08-23T11:01:09.216Z,102057.94
2022-08-23T11:03:44.646Z,102050.31
2022-08-23T11:06:46.770Z,102049.06
2022-08-23T11:09:47.333Z,102057.19
2022-08-23T11:12:28.431Z,102058.44
2022-08-23T11:15:11.970Z,102060.97
2022-08-23T11:17:55.232Z,102056.69
2022-08-23T11:21:06.005Z,102049.88
2022-08-23T11:23:44.633Z,102053.16
2022-08-23T11:27:06.272Z,102054.84
2022-08-23T11:29:39.025Z,102050.63
2022-08-23T11:32:32.097Z,102044.44
2022-08-23T11:35:27.478Z,102050.13
2022-08-23T11:38:00.415Z,102046.25
2022-08-23T11:40:57.458Z,102049.47
2022-08-23T11:43:31.859Z,102056.00
2022-08-23T11:46:24.307Z,102048.91
2022-08-23T11:49:05.223Z,102048.41
2022-08-23T11:51:43.561Z,102050.84
2022-08-23T11:54:31.233Z,102050.72
2022-08-23T11:57:19.570Z,102059.16
2022-08-23T12:00:06.993Z,102055.09
2022-08-23T12:02:49.411Z,102052.97
2022-08-23T12:05:33.620Z,102056.06
2022-08-23T12:08:29.710Z,102062.50
2022-08-23T12:11:07.177Z,102043.78
2022-08-23T12:13:51.833Z,102055.16
2022-08-23T12:16:38.411Z,102052.03
2022-08-23T12:19:25.901Z,102052.56
2022-08-23T12:21:57.790Z,102047.50
2022-08-23T12:24:29.972Z,102051.50
2022-08-23T12:27:08.585Z,102048.59
2022-08-23T12:29:49.021Z,102036.22
2022-08-23T12:32:23.912Z,102046.38
2022-08-23T12:35:04.477Z,102044.41
2022-08-23T12:37:38.615Z,102045.19
2022-08-23T12:40:12.884Z,102036.56
2022-08-23T12:42:41.535Z,102041.34
2022-08-23T12:45:15.476Z,102042.34
2022-08-23T12:47:45.927Z,102049.97
2022-08-23T12:50:26.090Z,102049.13
2022-08-23T12:53:03.904Z,102037.25
2022-08-23T12:55:35.489Z,102044.16
2022-08-23T12:58:04.570Z,102036.34
2022-08-23T13:00:35.842Z,102026.50
2022-08-23T13:03:08.653Z,102031.63
2022-08-23T13:05:45.989Z,102034.47
2022-08-23T13:08:19.420Z,102030.72
2022-08-23T13:10:56.961Z,102029.03
2022-08-23T13:13:28.473Z,102033.94
2022-08-23T13:15:59.145Z,102027.25
2022-08-23T13:18:31.517Z,102027.91
2022-08-23T13:21:19.628Z,102028.22
2022-08-23T13:23:48.422Z,102020.09
2022-08-23T13:26:37.012Z,102015.09
2022-08-23T13:29:11.727Z,102025.69
2022-08-23T13:32:02.678Z,102019.78
2022-08-23T13:34:40.692Z,102018.19
2022-08-23T13:37:24.249Z,102022.69
2022-08-23T13:39:56.142Z,102016.31
2022-08-23T13:42:36.267Z,102023.88
2022-08-23T13:45:15.028Z,102018.59
2022-08-23T13:47:48.563Z,102014.81
2022-08-23T13:50:27.681Z,102020.84
2022-08-23T13:53:20.560Z,102021.47
2022-08-23T13:55:48.471Z,102023.19
2022-08-23T13:58:26.030Z,102023.06
2022-08-23T14:00:55.525Z,102017.34
2022-08-23T14:03:31.500Z,102020.84
2022-08-23T14:05:59.732Z,102013.81
2022-08-23T14:08:29.161Z,102019.00
2022-08-23T14:10:57.237Z,102016.69
2022-08-23T14:13:28.918Z,102009.81
2022-08-23T14:16:32.924Z,102000.56
2022-08-23T14:21:35.656Z,102010.59
2022-08-23T14:24:05.842Z,102005.31
2022-08-23T14:26:33.990Z,102018.09
2022-08-23T14:29:02.095Z,102015.94
2022-08-23T14:31:30.179Z,102010.41
2022-08-23T14:34:01.986Z,102004.19
2022-08-23T14:36:31.105Z,102004.56
2022-08-23T14:38:59.462Z,102008.72
2022-08-23T14:41:30.406Z,102007.72
2022-08-23T14:43:58.675Z,101999.69
2022-08-23T14:46:26.945Z,101999.69
2022-08-23T14:48:55.057Z,101974.94
2022-08-23T14:51:28.230Z,101992.28
2022-08-23T14:53:57.016Z,101998.06
2022-08-23T14:56:25.732Z,101989.53
2022-08-23T14:58:55.350Z,101984.03
2022-08-23T15:01:23.990Z,101979.63
2022-08-23T15:03:52.830Z,101983.53
2022-08-23T15:06:22.032Z,101978.31
2022-08-23T15:08:50.351Z,101992.22
2022-08-23T15:14:08.283Z,101991.19
2022-08-23T15:16:36.646Z,101987.19
2022-08-23T15:19:06.600Z,101962.13
2022-08-23T15:21:35.403Z,101995.06
2022-08-23T15:24:03.606Z,101980.94
2022-08-23T15:26:32.543Z,101992.81
2022-08-23T15:29:01.425Z,101993.59
2022-08-23T15:31:31.390Z,101991.31
2022-08-23T15:33:59.570Z,101993.41
2022-08-23T15:36:28.445Z,101992.50
2022-08-23T15:38:56.733Z,102002.00
2022-08-23T15:41:24.907Z,101989.97
2022-08-23T15:43:53.289Z,101993.94
2022-08-23T15:46:24.020Z,101992.16
2022-08-23T15:48:58.210Z,101998.25
2022-08-23T15:51:27.247Z,101966.53
2022-08-23T15:53:57.589Z,101987.16
2022-08-23T15:56:31.252Z,101995.03
2022-08-23T15:58:59.739Z,101987.78
2022-08-23T16:01:30.315Z,101991.44
2022-08-23T16:04:02.026Z,101992.41
2022-08-23T16:06:33.264Z,101998.00
2022-08-23T16:09:06.545Z,102002.81
2022-08-23T16:11:34.823Z,102004.25
2022-08-23T16:14:02.834Z,102003.91
2022-08-23T16:16:33.196Z,102009.28
2022-08-23T16:19:02.992Z,101999.06
2022-08-23T16:21:32.846Z,101995.69
2022-08-23T16:24:02.167Z,101998.81
2022-08-23T16:26:35.344Z,102005.13
2022-08-23T16:29:06.418Z,101998.25
2022-08-23T16:31:39.047Z,102012.38
2022-08-23T16:34:11.254Z,101997.66
2022-08-23T16:36:41.853Z,101995.81
2022-08-23T16:39:12.464Z,101995.91
2022-08-23T16:41:40.647Z,102003.91
2022-08-23T16:44:08.706Z,101999.41
2022-08-23T16:46:41.178Z,102006.50
2022-08-23T16:49:11.220Z,102005.84
2022-08-23T16:51:39.569Z,101996.56
2022-08-23T16:54:08.688Z,102003.59
2022-08-23T16:56:38.473Z,102000.94
2022-08-23T16:59:08.865Z,102001.06
2022-08-23T17:01:46.279Z,102000.56
2022-08-23T17:04:16.349Z,102005.13
2022-08-23T17:06:44.611Z,102000.59
2022-08-23T17:09:13.427Z,102004.06
2022-08-23T17:11:43.741Z,102014.00
2022-08-23T17:14:12.883Z,102006.75
2022-08-23T17:16:41.301Z,102015.72
2022-08-23T17:19:09.534Z,102006.84
2022-08-23T17:21:39.833Z,102017.66
2022-08-23T17:24:08.658Z,102013.28
2022-08-23T17:26:37.308Z,102016.84
2022-08-23T17:29:05.574Z,102015.97
2022-08-23T17:31:33.840Z,102016.06
2022-08-23T17:34:03.936Z,102015.97
2022-08-23T17:36:35.250Z,102016.16
2022-08-23T17:39:07.943Z,102025.16
2022-08-23T17:41:36.290Z,102025.06
2022-08-23T17:44:05.274Z,102031.41
2022-08-23T17:46:35.903Z,102028.84
2022-08-23T17:49:04.566Z,102029.72
2022-08-23T17:51:33.199Z,102027.31
2022-08-23T17:54:01.652Z,102029.66
2022-08-23T17:56:32.782Z,102031.69
2022-08-23T17:59:01.045Z,102038.19
2022-08-23T18:01:29.190Z,102042.66
2022-08-23T18:03:57.481Z,102046.06
2022-08-23T18:06:26.576Z,102042.56
2022-08-23T18:08:55.467Z,102046.34
2022-08-23T18:11:24.137Z,102051.84
2022-08-23T18:13:53.637Z,102054.69
2022-08-23T18:16:21.762Z,102052.00
2022-08-23T18:18:50.089Z,102050.34
2022-08-23T18:21:18.677Z,102059.31
2022-08-23T18:23:46.806Z,102048.78
2022-08-23T18:26:30.420Z,102064.69
2022-08-23T18:29:01.288Z,102061.06
2022-08-23T18:31:29.510Z,102057.84
2022-08-23T18:34:00.506Z,102058.31
2022-08-23T18:36:30.036Z,102058.38
2022-08-23T18:38:58.451Z,102068.47
2022-08-23T18:41:26.578Z,102059.69
2022-08-23T18:43:54.825Z,102071.28
2022-08-23T18:46:24.572Z,102071.22
2022-08-23T18:48:53.705Z,102076.31
2022-08-23T18:51:23.374Z,102056.06
2022-08-23T18:53:51.967Z,102080.03
2022-08-23T18:56:20.436Z,102073.69
2022-08-23T18:58:49.031Z,102075.00
2022-08-23T19:01:30.676Z,102079.13
2022-08-23T19:04:00.350Z,102078.47
2022-08-23T19:06:29.244Z,102084.72
2022-08-23T19:08:58.119Z,102077.88
2022-08-23T19:11:26.156Z,102081.63
2022-08-23T19:13:54.503Z,102088.91
2022-08-23T19:16:23.530Z,102096.25
2022-08-23T19:18:52.951Z,102096.38
2022-08-23T19:21:23.474Z,102099.09
2022-08-23T19:23:53.259Z,102103.63
2022-08-23T19:26:25.873Z,102094.84
2022-08-23T19:28:54.116Z,102101.78
2022-08-23T19:31:24.978Z,102108.97
2022-08-23T19:33:54.714Z,102105.28
2022-08-23T19:36:44.745Z,102067.47
2022-08-23T19:39:11.782Z,102101.78
2022-08-23T19:41:42.079Z,102108.72
2022-08-23T19:44:10.474Z,102108.81
2022-08-23T19:46:42.058Z,102107.63
2022-08-23T19:49:14.725Z,102110.63
2022-08-23T19:51:43.738Z,102115.19
2022-08-23T19:54:13.725Z,102115.34
2022-08-23T19:56:44.723Z,102117.31
2022-08-23T19:59:18.272Z,102123.75
2022-08-23T20:01:46.960Z,102110.38
2022-08-23T20:04:17.269Z,102122.69
2022-08-23T20:06:45.255Z,102120.59
2022-08-23T20:09:13.621Z,102116.16
2022-08-23T20:11:42.630Z,102127.66
2022-08-23T20:14:11.132Z,102120.47
2022-08-23T20:16:41.051Z,102120.72
2022-08-23T20:19:10.868Z,102126.06
2022-08-23T20:21:41.470Z,102131.59
2022-08-23T20:24:11.515Z,102131.53
2022-08-23T20:26:42.053Z,102131.75
2022-08-23T20:29:11.927Z,102129.28
2022-08-23T20:31:48.321Z,102134.50
2022-08-23T20:34:16.514Z,102138.94
2022-08-23T20:36:46.214Z,102123.31
2022-08-23T20:39:14.427Z,102140.91
2022-08-23T20:41:43.059Z,102132.09
2022-08-23T20:44:12.109Z,102140.91
2022-08-23T20:46:40.299Z,102140.97
2022-08-23T20:49:09.208Z,102139.19
2022-08-23T20:51:37.390Z,102141.97
2022-08-23T20:54:07.323Z,102147.41
2022-08-23T20:56:36.925Z,102148.34
2022-08-23T20:59:05.717Z,102137.81
2022-08-23T21:01:34.053Z,102146.88
2022-08-23T21:04:02.419Z,102151.38
2022-08-23T21:06:39.078Z,102159.44
2022-08-23T21:09:17.272Z,102155.09
2022-08-23T21:11:45.950Z,102148.03
2022-08-23T21:14:15.458Z,102156.13
2022-08-23T21:16:45.603Z,102157.94
2022-08-23T21:19:14.206Z,102147.38
2022-08-23T21:21:42.935Z,102152.78
2022-08-23T21:24:12.390Z,102151.09
2022-08-23T21:26:42.445Z,102151.16
2022-08-23T21:29:11.438Z,102147.69
2022-08-23T21:31:40.612Z,102134.34
2022-08-23T21:34:09.358Z,102137.06
2022-08-23T21:36:38.354Z,102140.72
2022-08-23T21:39:06.796Z,102138.94
2022-08-23T21:41:38.065Z,102146.16
2022-08-23T21:44:10.455Z,102145.31
2022-08-23T21:46:39.052Z,102145.34
2022-08-23T21:49:08.016Z,102137.34
2022-08-23T21:51:36.418Z,102147.91
2022-08-23T21:54:04.772Z,102140.81
2022-08-23T21:56:32.841Z,102141.00
2022-08-23T21:59:01.671Z,102137.41
2022-08-23T22:01:31.699Z,102135.69
2022-08-23T22:03:59.884Z,102128.59
2022-08-23T22:06:28.821Z,102137.53
2022-08-23T22:08:57.244Z,102139.34
2022-08-23T22:11:25.495Z,102141.13
2022-08-23T22:13:54.630Z,102135.88
2022-08-23T22:16:23.523Z,102134.09
2022-08-23T22:18:53.515Z,102134.13
2022-08-23T22:21:21.682Z,102128.78
2022-08-23T22:23:49.922Z,102135.06
2022-08-23T22:26:17.936Z,102132.44
2022-08-23T22:28:46.182Z,102137.81
2022-08-23T22:31:16.094Z,102132.53
2022-08-23T22:33:45.168Z,102132.53
2022-08-23T22:36:17.840Z,102130.81
2022-08-23T22:38:46.912Z,102138.00
2022-08-23T22:41:18.385Z,102123.94
2022-08-23T22:43:47.020Z,102136.25
2022-08-23T22:46:15.134Z,102129.19
2022-08-23T22:48:43.887Z,102131.03
2022-08-23T22:51:15.904Z,102127.56
2022-08-23T22:53:47.423Z,102126.72
2022-08-23T22:56:18.693Z,102122.41
2022-08-23T22:58:47.776Z,102120.63
2022-08-23T23:01:21.260Z,102126.00
2022-08-23T23:03:51.721Z,102120.72
2022-08-23T23:06:22.073Z,102120.78
2022-08-23T23:08:51.181Z,102121.69
2022-08-23T23:11:21.340Z,102120.84
2022-08-23T23:13:50.157Z,102121.59
2022-08-23T23:16:20.766Z,102122.66
2022-08-23T23:19:03.385Z,102128.78
2022-08-23T23:21:35.464Z,102116.34
2022-08-23T23:24:04.920Z,102112.72
2022-08-23T23:26:33.025Z,102120.69
2022-08-23T23:29:01.092Z,102125.00
2022-08-23T23:31:29.637Z,102124.25
2022-08-23T23:33:58.421Z,102117.19
2022-08-23T23:36:26.815Z,102123.53
2022-08-23T23:38:56.456Z,102119.22
2022-08-23T23:41:24.688Z,102122.72
2022-08-23T23:43:52.765Z,102130.69
2022-08-23T23:46:21.710Z,102120.97
2022-08-23T23:48:51.311Z,102129.03
2022-08-23T23:51:22.144Z,102128.09
2022-08-23T23:53:50.824Z,102126.28
2022-08-23T23:56:21.450Z,102129.84
2022-08-23T23:58:52.249Z,102125.31
